Val Verde, California
Current Conditions -  °F | °C
As of 9:48 AM on Sunday 25 Jan 2015 (Local Time) from KSDB Reporting Station
Clear Clear  
Wind Chill: 57°   Ceiling: Unl
Heat Index: 57°   Visibility: 10mi
Dew Point: 19°   Wind: 20mph
Humidity: 23%   Direction: 40°NE
Pressure: 30.24"   Gusts: NA
Location:  34.5552°N, 118.643°W
Report Text: KSDB 251748Z AUTO 04017KT 10SM CLR 14/M07 A3024 RMK AO2 SLP212 T01391072 10139 20083 50001 $
Loading
Personal Weather Stations






























Interactive Weather Map New forecast layout! Learn more

10-Day Weather Forecast

Advertisements
Track Severe Weather on mobile